sensor_id;sensor_type;location;lat;lon;timestamp;P1;durP1;ratioP1;P2;durP2;ratioP2
32501;SDS011;18952;52.516;13.460;2022-10-16T00:01:25;9.05;;;8.00;;
32501;SDS011;18952;52.516;13.460;2022-10-16T00:03:53;7.05;;;5.32;;
32501;SDS011;18952;52.516;13.460;2022-10-16T00:06:21;6.03;;;4.78;;
32501;SDS011;18952;52.516;13.460;2022-10-16T00:08:49;6.40;;;5.13;;
32501;SDS011;18952;52.516;13.460;2022-10-16T00:11:23;7.10;;;4.72;;
32501;SDS011;18952;52.516;13.460;2022-10-16T00:13:56;6.03;;;5.18;;
32501;SDS011;18952;52.516;13.460;2022-10-16T00:16:25;5.22;;;4.72;;
32501;SDS011;18952;52.516;13.460;2022-10-16T00:18:53;7.72;;;4.68;;
32501;SDS011;18952;52.516;13.460;2022-10-16T00:21:22;7.75;;;4.90;;
32501;SDS011;18952;52.516;13.460;2022-10-16T00:23:55;5.05;;;4.55;;
32501;SDS011;18952;52.516;13.460;2022-10-16T00:26:27;7.03;;;4.00;;
32501;SDS011;18952;52.516;13.460;2022-10-16T00:28:55;4.50;;;3.80;;
32501;SDS011;18952;52.516;13.460;2022-10-16T00:31:22;5.45;;;3.90;;
32501;SDS011;18952;52.516;13.460;2022-10-16T00:33:50;7.15;;;3.80;;
32501;SDS011;18952;52.516;13.460;2022-10-16T00:36:18;6.20;;;3.75;;
32501;SDS011;18952;52.516;13.460;2022-10-16T00:38:46;9.05;;;5.13;;
32501;SDS011;18952;52.516;13.460;2022-10-16T00:41:16;6.65;;;4.45;;
32501;SDS011;18952;52.516;13.460;2022-10-16T00:43:48;7.75;;;4.10;;
32501;SDS011;18952;52.516;13.460;2022-10-16T00:49:03;6.15;;;3.42;;
32501;SDS011;18952;52.516;13.460;2022-10-16T00:51:39;5.88;;;3.53;;
32501;SDS011;18952;52.516;13.460;2022-10-16T00:54:09;3.53;;;3.22;;
32501;SDS011;18952;52.516;13.460;2022-10-16T00:56:41;5.80;;;3.30;;
32501;SDS011;18952;52.516;13.460;2022-10-16T00:59:19;4.45;;;3.10;;
32501;SDS011;18952;52.516;13.460;2022-10-16T01:01:46;4.53;;;3.53;;
32501;SDS011;18952;52.516;13.460;2022-10-16T01:04:13;5.35;;;3.40;;
32501;SDS011;18952;52.516;13.460;2022-10-16T01:06:43;5.50;;;2.88;;
32501;SDS011;18952;52.516;13.460;2022-10-16T01:09:23;4.40;;;3.03;;
32501;SDS011;18952;52.516;13.460;2022-10-16T01:12:12;4.32;;;3.25;;
32501;SDS011;18952;52.516;13.460;2022-10-16T01:17:46;6.57;;;3.38;;
32501;SDS011;18952;52.516;13.460;2022-10-16T01:28:21;5.88;;;2.70;;
32501;SDS011;18952;52.516;13.460;2022-10-16T01:30:53;4.72;;;3.47;;
32501;SDS011;18952;52.516;13.460;2022-10-16T01:33:34;4.28;;;2.75;;
32501;SDS011;18952;52.516;13.460;2022-10-16T01:36:09;2.95;;;2.42;;
32501;SDS011;18952;52.516;13.460;2022-10-16T01:38:43;4.97;;;2.97;;
32501;SDS011;18952;52.516;13.460;2022-10-16T01:44:28;3.38;;;2.30;;
32501;SDS011;18952;52.516;13.460;2022-10-16T01:46:58;3.85;;;2.40;;
32501;SDS011;18952;52.516;13.460;2022-10-16T01:49:27;4.18;;;2.13;;
32501;SDS011;18952;52.516;13.460;2022-10-16T01:51:58;4.60;;;2.53;;
32501;SDS011;18952;52.516;13.460;2022-10-16T01:54:30;5.10;;;2.70;;
32501;SDS011;18952;52.516;13.460;2022-10-16T01:56:59;3.15;;;2.40;;
32501;SDS011;18952;52.516;13.460;2022-10-16T01:59:28;4.30;;;2.55;;
32501;SDS011;18952;52.516;13.460;2022-10-16T02:02:01;5.85;;;2.65;;
32501;SDS011;18952;52.516;13.460;2022-10-16T02:04:34;4.57;;;2.88;;
32501;SDS011;18952;52.516;13.460;2022-10-16T02:07:05;7.55;;;2.72;;
32501;SDS011;18952;52.516;13.460;2022-10-16T02:09:33;3.30;;;2.50;;
32501;SDS011;18952;52.516;13.460;2022-10-16T02:12:01;4.65;;;2.70;;
32501;SDS011;18952;52.516;13.460;2022-10-16T02:14:33;4.68;;;2.80;;
32501;SDS011;18952;52.516;13.460;2022-10-16T02:17:10;5.07;;;2.10;;
32501;SDS011;18952;52.516;13.460;2022-10-16T02:19:39;3.47;;;2.38;;
32501;SDS011;18952;52.516;13.460;2022-10-16T02:22:07;4.13;;;2.10;;
32501;SDS011;18952;52.516;13.460;2022-10-16T02:24:43;3.15;;;2.20;;
32501;SDS011;18952;52.516;13.460;2022-10-16T02:30:36;2.55;;;1.85;;
32501;SDS011;18952;52.516;13.460;2022-10-16T02:33:11;4.13;;;2.35;;
32501;SDS011;18952;52.516;13.460;2022-10-16T02:35:40;2.30;;;1.77;;
32501;SDS011;18952;52.516;13.460;2022-10-16T02:38:08;5.35;;;1.73;;
32501;SDS011;18952;52.516;13.460;2022-10-16T02:40:41;4.25;;;1.95;;
32501;SDS011;18952;52.516;13.460;2022-10-16T02:43:08;5.60;;;2.00;;
32501;SDS011;18952;52.516;13.460;2022-10-16T02:45:37;3.90;;;1.60;;
32501;SDS011;18952;52.516;13.460;2022-10-16T02:48:04;2.80;;;1.60;;
32501;SDS011;18952;52.516;13.460;2022-10-16T02:50:31;3.13;;;1.48;;
32501;SDS011;18952;52.516;13.460;2022-10-16T02:52:57;2.58;;;1.60;;
32501;SDS011;18952;52.516;13.460;2022-10-16T02:55:24;3.05;;;1.90;;
32501;SDS011;18952;52.516;13.460;2022-10-16T02:57:51;3.38;;;2.08;;
32501;SDS011;18952;52.516;13.460;2022-10-16T03:00:18;3.03;;;1.77;;
32501;SDS011;18952;52.516;13.460;2022-10-16T03:02:45;1.73;;;1.42;;
32501;SDS011;18952;52.516;13.460;2022-10-16T03:05:12;4.50;;;1.67;;
32501;SDS011;18952;52.516;13.460;2022-10-16T03:07:39;2.95;;;1.73;;
32501;SDS011;18952;52.516;13.460;2022-10-16T03:10:07;4.70;;;2.00;;
32501;SDS011;18952;52.516;13.460;2022-10-16T03:12:34;2.03;;;1.60;;
32501;SDS011;18952;52.516;13.460;2022-10-16T03:15:02;3.72;;;2.10;;
32501;SDS011;18952;52.516;13.460;2022-10-16T03:17:31;2.85;;;1.60;;
32501;SDS011;18952;52.516;13.460;2022-10-16T03:20:02;4.10;;;1.92;;
32501;SDS011;18952;52.516;13.460;2022-10-16T03:22:29;3.65;;;1.80;;
32501;SDS011;18952;52.516;13.460;2022-10-16T03:24:56;2.45;;;1.80;;
32501;SDS011;18952;52.516;13.460;2022-10-16T03:27:22;2.17;;;1.80;;
32501;SDS011;18952;52.516;13.460;2022-10-16T03:29:49;1.63;;;1.52;;
32501;SDS011;18952;52.516;13.460;2022-10-16T03:32:16;2.42;;;1.95;;
32501;SDS011;18952;52.516;13.460;2022-10-16T03:34:43;1.70;;;1.55;;
32501;SDS011;18952;52.516;13.460;2022-10-16T03:37:09;2.67;;;1.83;;
32501;SDS011;18952;52.516;13.460;2022-10-16T03:39:36;4.78;;;2.00;;
32501;SDS011;18952;52.516;13.460;2022-10-16T03:42:03;4.53;;;1.90;;
32501;SDS011;18952;52.516;13.460;2022-10-16T03:44:29;3.50;;;1.98;;
32501;SDS011;18952;52.516;13.460;2022-10-16T03:46:56;3.15;;;2.08;;
32501;SDS011;18952;52.516;13.460;2022-10-16T03:49:23;2.33;;;1.83;;
32501;SDS011;18952;52.516;13.460;2022-10-16T03:51:49;2.85;;;2.17;;
32501;SDS011;18952;52.516;13.460;2022-10-16T03:54:16;3.58;;;1.80;;
32501;SDS011;18952;52.516;13.460;2022-10-16T03:56:43;5.15;;;1.90;;
32501;SDS011;18952;52.516;13.460;2022-10-16T03:59:09;4.47;;;1.75;;
32501;SDS011;18952;52.516;13.460;2022-10-16T04:01:37;3.22;;;1.90;;
32501;SDS011;18952;52.516;13.460;2022-10-16T04:04:04;4.60;;;2.00;;
32501;SDS011;18952;52.516;13.460;2022-10-16T04:06:31;2.92;;;2.35;;
32501;SDS011;18952;52.516;13.460;2022-10-16T04:08:57;4.15;;;2.13;;
32501;SDS011;18952;52.516;13.460;2022-10-16T04:11:35;2.88;;;2.20;;
32501;SDS011;18952;52.516;13.460;2022-10-16T04:14:05;3.45;;;2.30;;
32501;SDS011;18952;52.516;13.460;2022-10-16T04:16:34;4.38;;;2.05;;
32501;SDS011;18952;52.516;13.460;2022-10-16T04:19:03;4.53;;;2.20;;
32501;SDS011;18952;52.516;13.460;2022-10-16T04:21:32;2.63;;;2.08;;
32501;SDS011;18952;52.516;13.460;2022-10-16T04:24:01;4.95;;;2.20;;
32501;SDS011;18952;52.516;13.460;2022-10-16T04:26:31;3.45;;;2.00;;
32501;SDS011;18952;52.516;13.460;2022-10-16T04:28:59;3.83;;;2.13;;
32501;SDS011;18952;52.516;13.460;2022-10-16T04:31:28;3.78;;;2.22;;
32501;SDS011;18952;52.516;13.460;2022-10-16T04:33:58;3.33;;;2.10;;
32501;SDS011;18952;52.516;13.460;2022-10-16T04:36:27;4.20;;;2.00;;
32501;SDS011;18952;52.516;13.460;2022-10-16T04:38:57;2.65;;;2.22;;
32501;SDS011;18952;52.516;13.460;2022-10-16T04:41:25;4.68;;;2.55;;
32501;SDS011;18952;52.516;13.460;2022-10-16T04:43:57;5.03;;;2.88;;
32501;SDS011;18952;52.516;13.460;2022-10-16T04:46:24;3.38;;;2.80;;
32501;SDS011;18952;52.516;13.460;2022-10-16T04:48:51;3.78;;;2.70;;
32501;SDS011;18952;52.516;13.460;2022-10-16T04:51:17;3.40;;;3.10;;
32501;SDS011;18952;52.516;13.460;2022-10-16T04:53:44;4.25;;;2.88;;
32501;SDS011;18952;52.516;13.460;2022-10-16T04:56:10;5.97;;;2.90;;
32501;SDS011;18952;52.516;13.460;2022-10-16T04:58:37;4.13;;;3.40;;
32501;SDS011;18952;52.516;13.460;2022-10-16T05:01:05;6.50;;;3.08;;
32501;SDS011;18952;52.516;13.460;2022-10-16T05:03:32;4.90;;;2.90;;
32501;SDS011;18952;52.516;13.460;2022-10-16T05:05:59;4.38;;;3.05;;
32501;SDS011;18952;52.516;13.460;2022-10-16T05:08:26;4.50;;;2.92;;
32501;SDS011;18952;52.516;13.460;2022-10-16T05:10:54;4.70;;;3.25;;
32501;SDS011;18952;52.516;13.460;2022-10-16T05:13:22;5.78;;;3.50;;
32501;SDS011;18952;52.516;13.460;2022-10-16T05:15:49;5.97;;;4.18;;
32501;SDS011;18952;52.516;13.460;2022-10-16T05:18:17;7.63;;;5.25;;
32501;SDS011;18952;52.516;13.460;2022-10-16T05:20:44;7.95;;;4.60;;
32501;SDS011;18952;52.516;13.460;2022-10-16T05:23:16;7.10;;;4.13;;
32501;SDS011;18952;52.516;13.460;2022-10-16T05:25:42;6.82;;;3.88;;
32501;SDS011;18952;52.516;13.460;2022-10-16T05:28:18;7.40;;;4.22;;
32501;SDS011;18952;52.516;13.460;2022-10-16T05:30:46;5.07;;;3.92;;
32501;SDS011;18952;52.516;13.460;2022-10-16T05:33:15;4.68;;;3.80;;
32501;SDS011;18952;52.516;13.460;2022-10-16T05:35:45;7.43;;;3.90;;
32501;SDS011;18952;52.516;13.460;2022-10-16T05:38:16;4.85;;;3.47;;
32501;SDS011;18952;52.516;13.460;2022-10-16T05:40:43;4.78;;;3.53;;
32501;SDS011;18952;52.516;13.460;2022-10-16T05:43:18;5.00;;;3.40;;
32501;SDS011;18952;52.516;13.460;2022-10-16T05:45:52;5.10;;;3.80;;
32501;SDS011;18952;52.516;13.460;2022-10-16T05:48:21;4.40;;;3.35;;
32501;SDS011;18952;52.516;13.460;2022-10-16T05:50:56;6.43;;;4.13;;
32501;SDS011;18952;52.516;13.460;2022-10-16T05:53:29;4.65;;;3.20;;
32501;SDS011;18952;52.516;13.460;2022-10-16T05:55:58;3.80;;;3.28;;
32501;SDS011;18952;52.516;13.460;2022-10-16T05:58:27;5.80;;;2.97;;
32501;SDS011;18952;52.516;13.460;2022-10-16T06:01:04;4.28;;;2.92;;
32501;SDS011;18952;52.516;13.460;2022-10-16T06:03:34;3.67;;;3.13;;
32501;SDS011;18952;52.516;13.460;2022-10-16T06:06:10;5.60;;;3.20;;
32501;SDS011;18952;52.516;13.460;2022-10-16T06:08:39;5.70;;;4.20;;
32501;SDS011;18952;52.516;13.460;2022-10-16T06:11:08;5.90;;;3.40;;
32501;SDS011;18952;52.516;13.460;2022-10-16T06:13:37;3.85;;;3.05;;
32501;SDS011;18952;52.516;13.460;2022-10-16T06:16:03;5.95;;;3.10;;
32501;SDS011;18952;52.516;13.460;2022-10-16T06:18:32;4.25;;;3.30;;
32501;SDS011;18952;52.516;13.460;2022-10-16T06:20:58;6.50;;;3.03;;
32501;SDS011;18952;52.516;13.460;2022-10-16T06:23:28;4.85;;;3.03;;
32501;SDS011;18952;52.516;13.460;2022-10-16T06:26:03;5.40;;;3.17;;
32501;SDS011;18952;52.516;13.460;2022-10-16T06:28:41;4.78;;;3.30;;
32501;SDS011;18952;52.516;13.460;2022-10-16T06:31:08;4.25;;;3.60;;
32501;SDS011;18952;52.516;13.460;2022-10-16T06:33:38;4.03;;;3.30;;
32501;SDS011;18952;52.516;13.460;2022-10-16T06:36:07;4.97;;;3.28;;
32501;SDS011;18952;52.516;13.460;2022-10-16T06:38:39;6.47;;;3.67;;
32501;SDS011;18952;52.516;13.460;2022-10-16T06:41:06;4.15;;;3.50;;
32501;SDS011;18952;52.516;13.460;2022-10-16T06:43:37;5.78;;;3.35;;
32501;SDS011;18952;52.516;13.460;2022-10-16T06:46:05;4.05;;;3.20;;
32501;SDS011;18952;52.516;13.460;2022-10-16T06:48:34;5.45;;;3.35;;
32501;SDS011;18952;52.516;13.460;2022-10-16T06:51:06;6.22;;;3.13;;
32501;SDS011;18952;52.516;13.460;2022-10-16T06:53:43;7.32;;;3.22;;
32501;SDS011;18952;52.516;13.460;2022-10-16T06:56:28;6.32;;;3.55;;
32501;SDS011;18952;52.516;13.460;2022-10-16T06:58:56;4.65;;;3.15;;
32501;SDS011;18952;52.516;13.460;2022-10-16T07:01:23;4.72;;;2.88;;
32501;SDS011;18952;52.516;13.460;2022-10-16T07:03:51;4.57;;;2.90;;
32501;SDS011;18952;52.516;13.460;2022-10-16T07:06:24;5.43;;;2.88;;
32501;SDS011;18952;52.516;13.460;2022-10-16T07:08:57;6.38;;;5.32;;
32501;SDS011;18952;52.516;13.460;2022-10-16T07:11:23;8.57;;;3.50;;
32501;SDS011;18952;52.516;13.460;2022-10-16T07:13:51;4.63;;;3.10;;
32501;SDS011;18952;52.516;13.460;2022-10-16T07:16:28;4.53;;;3.00;;
32501;SDS011;18952;52.516;13.460;2022-10-16T07:18:58;4.13;;;2.45;;
32501;SDS011;18952;52.516;13.460;2022-10-16T07:21:33;4.53;;;2.63;;
32501;SDS011;18952;52.516;13.460;2022-10-16T07:24:04;3.60;;;2.67;;
32501;SDS011;18952;52.516;13.460;2022-10-16T07:26:40;4.57;;;2.47;;
32501;SDS011;18952;52.516;13.460;2022-10-16T07:29:18;3.35;;;2.30;;
32501;SDS011;18952;52.516;13.460;2022-10-16T07:31:47;7.00;;;2.63;;
32501;SDS011;18952;52.516;13.460;2022-10-16T07:37:44;5.30;;;2.70;;
32501;SDS011;18952;52.516;13.460;2022-10-16T07:40:14;5.43;;;2.42;;
32501;SDS011;18952;52.516;13.460;2022-10-16T07:42:43;3.67;;;2.75;;
32501;SDS011;18952;52.516;13.460;2022-10-16T07:45:10;8.00;;;3.33;;
32501;SDS011;18952;52.516;13.460;2022-10-16T07:47:36;3.25;;;2.95;;
32501;SDS011;18952;52.516;13.460;2022-10-16T07:50:04;4.95;;;2.90;;
32501;SDS011;18952;52.516;13.460;2022-10-16T07:52:31;8.55;;;3.30;;
32501;SDS011;18952;52.516;13.460;2022-10-16T07:54:57;7.90;;;3.00;;
32501;SDS011;18952;52.516;13.460;2022-10-16T07:57:24;5.10;;;2.38;;
32501;SDS011;18952;52.516;13.460;2022-10-16T07:59:51;5.88;;;3.42;;
32501;SDS011;18952;52.516;13.460;2022-10-16T08:02:19;6.47;;;2.90;;
32501;SDS011;18952;52.516;13.460;2022-10-16T08:04:49;4.90;;;2.70;;
32501;SDS011;18952;52.516;13.460;2022-10-16T08:07:16;4.53;;;2.20;;
32501;SDS011;18952;52.516;13.460;2022-10-16T08:09:43;5.28;;;2.33;;
32501;SDS011;18952;52.516;13.460;2022-10-16T08:12:09;5.40;;;2.50;;
32501;SDS011;18952;52.516;13.460;2022-10-16T08:14:51;3.75;;;2.00;;
32501;SDS011;18952;52.516;13.460;2022-10-16T08:17:18;7.07;;;2.13;;
32501;SDS011;18952;52.516;13.460;2022-10-16T08:19:47;3.10;;;1.77;;
32501;SDS011;18952;52.516;13.460;2022-10-16T08:22:18;2.90;;;1.58;;
32501;SDS011;18952;52.516;13.460;2022-10-16T08:24:50;4.20;;;2.17;;
32501;SDS011;18952;52.516;13.460;2022-10-16T08:27:20;2.85;;;2.10;;
32501;SDS011;18952;52.516;13.460;2022-10-16T08:29:48;3.20;;;2.10;;
32501;SDS011;18952;52.516;13.460;2022-10-16T08:32:22;4.78;;;1.90;;
32501;SDS011;18952;52.516;13.460;2022-10-16T08:34:54;5.28;;;1.95;;
32501;SDS011;18952;52.516;13.460;2022-10-16T08:37:22;3.80;;;1.85;;
32501;SDS011;18952;52.516;13.460;2022-10-16T08:39:50;3.97;;;1.45;;
32501;SDS011;18952;52.516;13.460;2022-10-16T08:53:53;5.55;;;1.80;;
32501;SDS011;18952;52.516;13.460;2022-10-16T08:56:25;3.67;;;1.65;;
32501;SDS011;18952;52.516;13.460;2022-10-16T08:58:52;4.85;;;1.90;;
32501;SDS011;18952;52.516;13.460;2022-10-16T09:01:32;4.30;;;2.60;;
32501;SDS011;18952;52.516;13.460;2022-10-16T09:07:09;6.15;;;1.70;;
32501;SDS011;18952;52.516;13.460;2022-10-16T09:09:51;5.30;;;1.55;;
32501;SDS011;18952;52.516;13.460;2022-10-16T09:12:40;4.28;;;1.42;;
32501;SDS011;18952;52.516;13.460;2022-10-16T09:15:32;5.68;;;1.63;;
32501;SDS011;18952;52.516;13.460;2022-10-16T09:23:57;4.30;;;1.48;;
32501;SDS011;18952;52.516;13.460;2022-10-16T09:26:26;4.85;;;1.75;;
32501;SDS011;18952;52.516;13.460;2022-10-16T09:28:52;3.15;;;1.58;;
32501;SDS011;18952;52.516;13.460;2022-10-16T09:31:21;3.25;;;1.50;;
32501;SDS011;18952;52.516;13.460;2022-10-16T09:33:53;4.93;;;1.55;;
32501;SDS011;18952;52.516;13.460;2022-10-16T09:36:28;3.70;;;1.27;;
32501;SDS011;18952;52.516;13.460;2022-10-16T09:39:08;1.58;;;1.17;;
32501;SDS011;18952;52.516;13.460;2022-10-16T09:41:40;4.32;;;1.38;;
32501;SDS011;18952;52.516;13.460;2022-10-16T09:44:20;5.93;;;1.67;;
32501;SDS011;18952;52.516;13.460;2022-10-16T09:50:04;4.00;;;1.35;;
32501;SDS011;18952;52.516;13.460;2022-10-16T09:52:32;2.33;;;1.33;;
32501;SDS011;18952;52.516;13.460;2022-10-16T09:55:00;3.55;;;1.20;;
32501;SDS011;18952;52.516;13.460;2022-10-16T09:57:53;2.28;;;1.17;;
32501;SDS011;18952;52.516;13.460;2022-10-16T10:00:21;2.40;;;1.38;;
32501;SDS011;18952;52.516;13.460;2022-10-16T10:02:52;2.80;;;1.50;;
32501;SDS011;18952;52.516;13.460;2022-10-16T10:05:21;2.95;;;1.50;;
32501;SDS011;18952;52.516;13.460;2022-10-16T10:07:54;5.88;;;1.20;;
32501;SDS011;18952;52.516;13.460;2022-10-16T10:10:30;2.22;;;1.25;;
32501;SDS011;18952;52.516;13.460;2022-10-16T10:13:14;3.75;;;1.10;;
32501;SDS011;18952;52.516;13.460;2022-10-16T10:15:46;3.30;;;1.17;;
32501;SDS011;18952;52.516;13.460;2022-10-16T10:18:20;3.55;;;1.50;;
32501;SDS011;18952;52.516;13.460;2022-10-16T10:21:02;4.82;;;1.20;;
32501;SDS011;18952;52.516;13.460;2022-10-16T10:23:35;3.53;;;1.40;;
32501;SDS011;18952;52.516;13.460;2022-10-16T10:28:49;2.90;;;1.13;;
32501;SDS011;18952;52.516;13.460;2022-10-16T10:31:53;3.08;;;1.35;;
32501;SDS011;18952;52.516;13.460;2022-10-16T10:40:28;3.63;;;1.10;;
32501;SDS011;18952;52.516;13.460;2022-10-16T10:43:03;5.90;;;1.20;;
32501;SDS011;18952;52.516;13.460;2022-10-16T10:46:00;3.75;;;1.17;;
32501;SDS011;18952;52.516;13.460;2022-10-16T10:51:31;2.33;;;1.00;;
32501;SDS011;18952;52.516;13.460;2022-10-16T10:57:09;3.00;;;1.00;;
32501;SDS011;18952;52.516;13.460;2022-10-16T11:07:45;1.77;;;0.80;;
32501;SDS011;18952;52.516;13.460;2022-10-16T11:10:25;9.18;;;1.27;;
32501;SDS011;18952;52.516;13.460;2022-10-16T11:13:04;6.68;;;1.05;;
32501;SDS011;18952;52.516;13.460;2022-10-16T11:15:50;0.95;;;0.68;;
32501;SDS011;18952;52.516;13.460;2022-10-16T11:18:22;4.78;;;0.73;;
32501;SDS011;18952;52.516;13.460;2022-10-16T11:21:03;2.92;;;1.00;;
32501;SDS011;18952;52.516;13.460;2022-10-16T11:23:44;2.38;;;0.98;;
32501;SDS011;18952;52.516;13.460;2022-10-16T11:26:20;3.83;;;1.10;;
32501;SDS011;18952;52.516;13.460;2022-10-16T11:28:54;2.03;;;0.90;;
32501;SDS011;18952;52.516;13.460;2022-10-16T11:31:40;5.45;;;1.30;;
32501;SDS011;18952;52.516;13.460;2022-10-16T11:34:21;4.05;;;1.00;;
32501;SDS011;18952;52.516;13.460;2022-10-16T11:40:03;2.95;;;0.90;;
32501;SDS011;18952;52.516;13.460;2022-10-16T11:42:44;1.63;;;0.90;;
32501;SDS011;18952;52.516;13.460;2022-10-16T11:48:12;2.30;;;0.90;;
32501;SDS011;18952;52.516;13.460;2022-10-16T11:56:49;4.97;;;1.10;;
32501;SDS011;18952;52.516;13.460;2022-10-16T11:59:28;7.55;;;1.20;;
32501;SDS011;18952;52.516;13.460;2022-10-16T12:08:10;3.00;;;0.82;;
32501;SDS011;18952;52.516;13.460;2022-10-16T12:10:39;1.58;;;0.70;;
32501;SDS011;18952;52.516;13.460;2022-10-16T12:16:28;2.05;;;0.90;;
32501;SDS011;18952;52.516;13.460;2022-10-16T12:19:09;2.75;;;1.15;;
32501;SDS011;18952;52.516;13.460;2022-10-16T12:21:41;2.90;;;0.93;;
32501;SDS011;18952;52.516;13.460;2022-10-16T12:27:00;1.55;;;0.60;;
32501;SDS011;18952;52.516;13.460;2022-10-16T12:29:37;4.57;;;0.60;;
32501;SDS011;18952;52.516;13.460;2022-10-16T12:32:24;3.80;;;0.80;;
32501;SDS011;18952;52.516;13.460;2022-10-16T12:35:24;3.95;;;0.70;;
32501;SDS011;18952;52.516;13.460;2022-10-16T12:41:03;8.13;;;0.70;;
32501;SDS011;18952;52.516;13.460;2022-10-16T12:46:03;4.75;;;0.80;;
32501;SDS011;18952;52.516;13.460;2022-10-16T12:48:37;2.97;;;0.73;;
32501;SDS011;18952;52.516;13.460;2022-10-16T12:56:47;5.90;;;0.68;;
32501;SDS011;18952;52.516;13.460;2022-10-16T13:16:30;5.55;;;0.80;;
32501;SDS011;18952;52.516;13.460;2022-10-16T13:22:01;4.97;;;0.70;;
32501;SDS011;18952;52.516;13.460;2022-10-16T13:24:51;2.97;;;0.50;;
32501;SDS011;18952;52.516;13.460;2022-10-16T13:27:55;1.30;;;0.55;;
32501;SDS011;18952;52.516;13.460;2022-10-16T13:30:26;1.58;;;0.60;;
32501;SDS011;18952;52.516;13.460;2022-10-16T13:33:06;2.45;;;0.60;;
32501;SDS011;18952;52.516;13.460;2022-10-16T13:35:46;4.22;;;0.57;;
32501;SDS011;18952;52.516;13.460;2022-10-16T13:38:16;1.63;;;0.45;;
32501;SDS011;18952;52.516;13.460;2022-10-16T13:40:57;5.53;;;0.60;;
32501;SDS011;18952;52.516;13.460;2022-10-16T13:43:36;2.88;;;0.50;;
32501;SDS011;18952;52.516;13.460;2022-10-16T13:46:12;2.97;;;0.60;;
32501;SDS011;18952;52.516;13.460;2022-10-16T13:48:55;3.83;;;0.65;;
32501;SDS011;18952;52.516;13.460;2022-10-16T13:51:28;1.73;;;0.60;;
32501;SDS011;18952;52.516;13.460;2022-10-16T13:53:57;2.47;;;0.60;;
32501;SDS011;18952;52.516;13.460;2022-10-16T13:56:25;4.75;;;0.70;;
32501;SDS011;18952;52.516;13.460;2022-10-16T13:59:04;3.35;;;0.55;;
32501;SDS011;18952;52.516;13.460;2022-10-16T14:01:40;2.88;;;0.60;;
32501;SDS011;18952;52.516;13.460;2022-10-16T14:04:11;2.25;;;0.57;;
32501;SDS011;18952;52.516;13.460;2022-10-16T14:06:44;2.92;;;0.60;;
32501;SDS011;18952;52.516;13.460;2022-10-16T14:09:16;4.88;;;0.90;;
32501;SDS011;18952;52.516;13.460;2022-10-16T14:11:51;2.60;;;0.68;;
32501;SDS011;18952;52.516;13.460;2022-10-16T14:14:43;2.85;;;0.75;;
32501;SDS011;18952;52.516;13.460;2022-10-16T14:17:19;4.22;;;0.65;;
32501;SDS011;18952;52.516;13.460;2022-10-16T14:19:55;2.92;;;0.70;;
32501;SDS011;18952;52.516;13.460;2022-10-16T14:25:13;3.17;;;0.60;;
32501;SDS011;18952;52.516;13.460;2022-10-16T14:28:14;4.97;;;0.77;;
32501;SDS011;18952;52.516;13.460;2022-10-16T14:30:57;5.07;;;0.80;;
32501;SDS011;18952;52.516;13.460;2022-10-16T14:33:31;6.47;;;1.00;;
32501;SDS011;18952;52.516;13.460;2022-10-16T14:36:01;2.67;;;0.80;;
32501;SDS011;18952;52.516;13.460;2022-10-16T14:38:27;2.15;;;0.90;;
32501;SDS011;18952;52.516;13.460;2022-10-16T14:40:54;2.88;;;0.80;;
32501;SDS011;18952;52.516;13.460;2022-10-16T14:43:36;8.48;;;1.05;;
32501;SDS011;18952;52.516;13.460;2022-10-16T14:46:08;1.90;;;0.63;;
32501;SDS011;18952;52.516;13.460;2022-10-16T14:48:52;3.15;;;0.75;;
32501;SDS011;18952;52.516;13.460;2022-10-16T14:51:26;3.90;;;0.80;;
32501;SDS011;18952;52.516;13.460;2022-10-16T14:53:53;1.85;;;0.70;;
32501;SDS011;18952;52.516;13.460;2022-10-16T14:56:26;14.30;;;1.77;;
32501;SDS011;18952;52.516;13.460;2022-10-16T14:58:58;2.85;;;0.60;;
32501;SDS011;18952;52.516;13.460;2022-10-16T15:01:26;4.22;;;0.95;;
32501;SDS011;18952;52.516;13.460;2022-10-16T15:03:53;4.50;;;1.00;;
32501;SDS011;18952;52.516;13.460;2022-10-16T15:06:20;4.85;;;1.10;;
32501;SDS011;18952;52.516;13.460;2022-10-16T15:08:47;5.65;;;0.93;;
32501;SDS011;18952;52.516;13.460;2022-10-16T15:11:15;3.63;;;1.02;;
32501;SDS011;18952;52.516;13.460;2022-10-16T15:13:44;1.73;;;0.75;;
32501;SDS011;18952;52.516;13.460;2022-10-16T15:16:11;2.90;;;0.90;;
32501;SDS011;18952;52.516;13.460;2022-10-16T15:18:39;3.40;;;0.70;;
32501;SDS011;18952;52.516;13.460;2022-10-16T15:21:07;4.43;;;1.00;;
32501;SDS011;18952;52.516;13.460;2022-10-16T15:23:34;2.85;;;0.80;;
32501;SDS011;18952;52.516;13.460;2022-10-16T15:26:00;4.68;;;0.70;;
32501;SDS011;18952;52.516;13.460;2022-10-16T15:28:27;2.72;;;0.70;;
32501;SDS011;18952;52.516;13.460;2022-10-16T15:30:55;1.83;;;0.80;;
32501;SDS011;18952;52.516;13.460;2022-10-16T15:33:23;6.05;;;1.38;;
32501;SDS011;18952;52.516;13.460;2022-10-16T15:35:51;2.30;;;1.20;;
32501;SDS011;18952;52.516;13.460;2022-10-16T15:38:19;4.82;;;1.40;;
32501;SDS011;18952;52.516;13.460;2022-10-16T15:40:47;5.20;;;1.23;;
32501;SDS011;18952;52.516;13.460;2022-10-16T15:43:15;3.17;;;1.20;;
32501;SDS011;18952;52.516;13.460;2022-10-16T15:45:42;3.72;;;1.15;;
32501;SDS011;18952;52.516;13.460;2022-10-16T15:48:12;4.57;;;1.70;;
32501;SDS011;18952;52.516;13.460;2022-10-16T15:50:41;3.35;;;1.35;;
32501;SDS011;18952;52.516;13.460;2022-10-16T15:53:13;3.20;;;1.33;;
32501;SDS011;18952;52.516;13.460;2022-10-16T15:55:39;6.22;;;1.50;;
32501;SDS011;18952;52.516;13.460;2022-10-16T15:58:07;6.20;;;2.05;;
32501;SDS011;18952;52.516;13.460;2022-10-16T16:00:36;6.20;;;1.58;;
32501;SDS011;18952;52.516;13.460;2022-10-16T16:03:03;4.43;;;1.48;;
32501;SDS011;18952;52.516;13.460;2022-10-16T16:05:33;9.40;;;2.38;;
32501;SDS011;18952;52.516;13.460;2022-10-16T16:08:08;6.95;;;2.35;;
32501;SDS011;18952;52.516;13.460;2022-10-16T16:10:34;10.30;;;2.28;;
32501;SDS011;18952;52.516;13.460;2022-10-16T16:13:02;7.63;;;2.20;;
32501;SDS011;18952;52.516;13.460;2022-10-16T16:15:29;6.18;;;2.30;;
32501;SDS011;18952;52.516;13.460;2022-10-16T16:17:58;5.68;;;2.17;;
32501;SDS011;18952;52.516;13.460;2022-10-16T16:20:25;8.07;;;2.30;;
32501;SDS011;18952;52.516;13.460;2022-10-16T16:22:53;5.72;;;2.47;;
32501;SDS011;18952;52.516;13.460;2022-10-16T16:25:20;6.68;;;3.10;;
32501;SDS011;18952;52.516;13.460;2022-10-16T16:27:48;5.20;;;2.45;;
32501;SDS011;18952;52.516;13.460;2022-10-16T16:30:15;9.55;;;3.40;;
32501;SDS011;18952;52.516;13.460;2022-10-16T16:32:50;7.40;;;2.88;;
32501;SDS011;18952;52.516;13.460;2022-10-16T16:35:17;6.22;;;2.95;;
32501;SDS011;18952;52.516;13.460;2022-10-16T16:37:44;7.03;;;2.40;;
32501;SDS011;18952;52.516;13.460;2022-10-16T16:40:12;9.27;;;4.20;;
32501;SDS011;18952;52.516;13.460;2022-10-16T16:42:39;8.20;;;4.07;;
32501;SDS011;18952;52.516;13.460;2022-10-16T16:45:06;14.05;;;8.95;;
32501;SDS011;18952;52.516;13.460;2022-10-16T16:47:33;10.07;;;5.32;;
32501;SDS011;18952;52.516;13.460;2022-10-16T16:50:00;4.30;;;2.60;;
32501;SDS011;18952;52.516;13.460;2022-10-16T16:52:28;13.82;;;7.70;;
32501;SDS011;18952;52.516;13.460;2022-10-16T16:54:55;7.88;;;3.40;;
32501;SDS011;18952;52.516;13.460;2022-10-16T16:57:21;4.80;;;2.90;;
32501;SDS011;18952;52.516;13.460;2022-10-16T16:59:49;8.20;;;3.67;;
32501;SDS011;18952;52.516;13.460;2022-10-16T17:02:16;5.57;;;3.15;;
32501;SDS011;18952;52.516;13.460;2022-10-16T17:04:43;5.90;;;3.45;;
32501;SDS011;18952;52.516;13.460;2022-10-16T17:07:10;5.78;;;3.58;;